Time;durP1;ratioP1;P1;durP2;ratioP2;P2;SDS_P1;SDS_P2;PMS_P1;PMS_P2;Temp;Humidity;BMP_temperature;BMP_pressure;BME280_temperature;BME280_humidity;BME280_pressure;Samples;Min_cycle;Max_cycle;Signal;HPM_P1;HPM_P2
2022/04/10 00:00:36;;;;;;;5.58;5.08;;;;;;;2.17;78.46;95952.80;1628277;87;21031;-86
2022/04/10 00:03:04;;;;;;;6.78;5.85;;;;;;;2.17;78.44;95965.61;1627192;87;21002;-86
2022/04/10 00:05:29;;;;;;;7.87;6.28;;;;;;;2.14;77.66;95968.45;1653499;87;21101;-86
2022/04/10 00:07:55;;;;;;;9.10;7.35;;;;;;;2.16;77.57;95972.97;1654558;87;21042;-85
2022/04/10 00:10:21;;;;;;;7.22;6.53;;;;;;;2.20;77.71;95981.51;1654771;87;21405;-85
2022/04/10 00:12:47;;;;;;;6.53;5.80;;;;;;;2.23;77.56;95983.79;1654627;87;21042;-85
2022/04/10 00:15:12;;;;;;;6.85;6.20;;;;;;;2.24;77.61;95984.59;1629698;88;20945;-85
2022/04/10 00:17:39;;;;;;;6.83;6.12;;;;;;;2.24;77.30;95989.72;1630364;87;21460;-85
2022/04/10 00:20:05;;;;;;;6.42;5.75;;;;;;;2.24;77.42;95992.28;1628971;88;21001;-85
2022/04/10 00:22:31;;;;;;;7.40;5.53;;;;;;;2.26;77.57;95998.89;1654792;87;21114;-85
2022/04/10 00:24:57;;;;;;;5.53;5.00;;;;;;;2.28;77.85;95993.64;1646150;87;21094;-85
2022/04/10 00:27:23;;;;;;;7.97;5.45;;;;;;;2.31;77.54;95992.08;1654567;87;21022;-85
2022/04/10 00:29:48;;;;;;;7.70;5.55;;;;;;;2.35;77.52;95990.37;1654618;87;21031;-85
2022/04/10 00:32:14;;;;;;;7.12;6.12;;;;;;;2.39;77.45;96008.84;1650983;86;21033;-85
2022/04/10 00:34:40;;;;;;;8.50;5.35;;;;;;;2.43;77.37;96004.23;1644651;87;21082;-85
2022/04/10 00:37:06;;;;;;;8.93;6.03;;;;;;;2.45;77.54;96008.77;1633550;87;20995;-85
2022/04/10 00:39:31;;;;;;;6.78;6.08;;;;;;;2.46;77.20;96007.82;1639591;87;21328;-85
2022/04/10 00:41:57;;;;;;;6.30;5.70;;;;;;;2.49;77.15;96008.34;1640613;87;21357;-85
2022/04/10 00:44:23;;;;;;;7.30;6.22;;;;;;;2.58;77.17;96009.23;1640740;87;21089;-85
2022/04/10 00:46:50;;;;;;;7.67;6.60;;;;;;;2.62;77.50;96007.55;1630401;87;21018;-85
2022/04/10 00:49:16;;;;;;;8.20;7.40;;;;;;;2.63;77.64;96013.02;1627596;86;21058;-85
2022/04/10 00:51:46;;;;;;;8.63;7.72;;;;;;;2.66;77.84;96015.77;1644638;87;21047;-85
2022/04/10 00:54:18;;;;;;;7.30;6.60;;;;;;;2.65;77.86;96011.11;1644233;87;21055;-85
2022/04/10 00:56:44;;;;;;;9.13;7.53;;;;;;;2.66;77.79;96013.20;1644891;86;21536;-85
2022/04/10 00:59:11;;;;;;;7.97;6.75;;;;;;;2.63;77.26;96011.73;1644347;87;21051;-85
2022/04/10 01:01:37;;;;;;;7.42;5.65;;;;;;;2.65;77.04;96013.67;1644888;87;21381;-85
2022/04/10 01:04:03;;;;;;;6.47;5.78;;;;;;;2.68;77.04;96009.54;1644729;87;21058;-85
2022/04/10 01:06:32;;;;;;;7.12;6.40;;;;;;;2.70;77.02;96010.67;1640878;87;21314;-85
2022/04/10 01:08:57;;;;;;;7.70;6.90;;;;;;;2.68;76.64;96023.65;1644031;87;20995;-85
2022/04/10 01:11:23;;;;;;;9.05;7.58;;;;;;;2.69;76.76;96023.98;1643819;87;21396;-85
2022/04/10 01:13:49;;;;;;;8.60;7.72;;;;;;;2.66;76.65;96022.17;1640740;87;21003;-85
2022/04/10 01:16:15;;;;;;;9.13;7.70;;;;;;;2.61;76.48;96024.38;1642504;87;21027;-85
2022/04/10 01:18:41;;;;;;;11.50;6.87;;;;;;;2.57;76.55;96027.66;1620172;87;21082;-85
2022/04/10 01:21:07;;;;;;;7.85;6.95;;;;;;;2.51;76.53;96032.09;1644905;87;21031;-85
2022/04/10 01:23:33;;;;;;;7.67;6.87;;;;;;;2.47;76.42;96026.91;1644968;87;21118;-85
2022/04/10 01:25:58;;;;;;;7.78;6.92;;;;;;;2.49;76.44;96030.61;1634193;87;21083;-85
2022/04/10 01:28:25;;;;;;;8.30;6.80;;;;;;;2.49;76.49;96033.98;1629257;87;21007;-85
2022/04/10 01:30:51;;;;;;;7.55;6.80;;;;;;;2.45;76.42;96031.38;1640333;87;21370;-85
2022/04/10 01:33:16;;;;;;;9.78;7.47;;;;;;;2.43;76.65;96033.72;1641857;87;20951;-86
2022/04/10 01:35:42;;;;;;;9.65;7.85;;;;;;;2.37;76.89;96033.34;1647629;87;20995;-86
2022/04/10 01:38:09;;;;;;;7.65;6.80;;;;;;;2.30;76.56;96036.14;1647356;87;21030;-85
2022/04/10 01:40:35;;;;;;;7.30;5.80;;;;;;;2.26;76.57;96045.50;1647830;87;21053;-86
2022/04/10 01:43:00;;;;;;;6.80;6.10;;;;;;;2.21;76.87;96044.64;1647923;87;20959;-86
2022/04/10 01:45:26;;;;;;;8.25;6.97;;;;;;;2.18;76.80;96048.77;1642918;86;21007;-85
2022/04/10 01:47:52;;;;;;;8.35;7.10;;;;;;;2.11;77.07;96048.97;1621393;88;21426;-84
2022/04/10 01:50:19;;;;;;;7.67;6.55;;;;;;;2.05;77.30;96053.37;1644416;86;21016;-85
2022/04/10 01:52:45;;;;;;;7.05;6.40;;;;;;;2.03;77.62;96054.80;1647549;87;20967;-85
2022/04/10 01:55:10;;;;;;;6.55;5.90;;;;;;;1.98;77.56;96053.59;1647978;87;21299;-85
2022/04/10 01:57:36;;;;;;;7.20;5.70;;;;;;;1.96;77.58;96060.62;1647795;87;21003;-85
2022/04/10 02:00:04;;;;;;;7.25;6.53;;;;;;;1.94;77.63;96063.76;1647743;87;21018;-85
2022/04/10 02:02:30;;;;;;;7.35;6.10;;;;;;;1.90;77.55;96066.27;1647753;87;20990;-85
2022/04/10 02:04:56;;;;;;;5.95;5.40;;;;;;;1.65;77.72;96032.58;1647897;87;21456;-85
2022/04/10 02:07:22;;;;;;;6.00;5.25;;;;;;;1.83;77.83;96075.45;1647632;87;20943;-85
2022/04/10 02:09:47;;;;;;;7.42;6.62;;;;;;;1.76;78.05;96070.84;1645203;87;21006;-85
2022/04/10 02:12:13;;;;;;;6.65;5.95;;;;;;;1.70;78.18;96075.23;1622010;87;20996;-84
2022/04/10 02:14:39;;;;;;;6.50;5.90;;;;;;;1.71;78.14;96070.45;1621447;88;21024;-85
2022/04/10 02:17:05;;;;;;;6.20;5.60;;;;;;;1.70;78.16;96073.96;1621413;88;21024;-85
2022/04/10 02:19:30;;;;;;;6.05;5.55;;;;;;;1.70;78.18;96083.39;1630397;87;20968;-85
2022/04/10 02:21:57;;;;;;;7.12;5.78;;;;;;;1.72;78.30;96078.47;1647706;87;20963;-85
2022/04/10 02:24:23;;;;;;;7.28;6.58;;;;;;;1.68;78.22;96077.60;1647684;87;21062;-85
2022/04/10 02:26:49;;;;;;;6.92;5.70;;;;;;;1.64;78.41;96074.51;1627554;87;21035;-85
2022/04/10 02:29:15;;;;;;;6.67;5.90;;;;;;;1.63;78.46;96075.92;1639049;87;20986;-85
2022/04/10 02:31:41;;;;;;;8.08;6.03;;;;;;;1.57;78.56;96068.28;1645395;87;21392;-85
2022/04/10 02:34:06;;;;;;;7.75;5.28;;;;;;;1.55;78.41;96068.89;1654097;86;21025;-85
2022/04/10 02:36:34;;;;;;;6.47;5.58;;;;;;;1.53;78.31;96069.50;1649201;87;21050;-85
2022/04/10 02:39:00;;;;;;;6.58;5.50;;;;;;;1.50;78.37;96069.77;1626648;88;21025;-87
2022/04/10 02:41:26;;;;;;;6.00;5.35;;;;;;;1.47;78.53;96073.41;1631373;87;21002;-88
2022/04/10 02:43:51;;;;;;;9.33;5.80;;;;;;;1.44;78.54;96075.41;1618989;88;20970;-85
2022/04/10 02:46:17;;;;;;;6.47;5.50;;;;;;;1.42;78.63;96084.97;1605102;89;20999;-87
2022/04/10 02:48:43;;;;;;;8.05;6.05;;;;;;;1.41;78.62;96092.32;1605064;89;21049;-87
2022/04/10 02:51:09;;;;;;;6.25;5.65;;;;;;;1.39;78.60;96091.17;1600103;88;21076;-87
2022/04/10 02:53:34;;;;;;;7.45;6.62;;;;;;;1.40;78.76;96090.70;1600718;90;20954;-87
2022/04/10 02:56:00;;;;;;;7.12;6.15;;;;;;;1.40;79.09;96090.23;1598880;90;21421;-87
2022/04/10 02:58:26;;;;;;;6.50;5.37;;;;;;;1.41;79.20;96085.92;1597332;90;21095;-87
2022/04/10 03:00:52;;;;;;;5.95;5.37;;;;;;;1.42;79.38;96083.22;1654150;87;21001;-86
2022/04/10 03:03:18;;;;;;;7.72;7.00;;;;;;;1.48;79.46;96092.14;1629213;88;21025;-86
2022/04/10 03:05:44;;;;;;;5.50;4.85;;;;;;;1.53;79.37;96093.83;1654241;87;21002;-86
2022/04/10 03:08:09;;;;;;;6.90;5.42;;;;;;;1.58;79.73;96089.58;1654594;87;21373;-87
2022/04/10 03:10:35;;;;;;;6.47;5.83;;;;;;;1.62;79.90;96092.20;1654598;87;20959;-87
2022/04/10 03:13:01;;;;;;;9.00;7.37;;;;;;;1.65;79.92;96094.05;1653791;87;21078;-87
2022/04/10 03:15:27;;;;;;;8.63;7.00;;;;;;;1.71;80.10;96092.70;1654675;87;21017;-87
2022/04/10 03:17:53;;;;;;;7.35;6.00;;;;;;;1.76;80.09;96093.09;1644333;87;21478;-87
2022/04/10 03:20:18;;;;;;;7.87;6.95;;;;;;;1.84;80.01;96102.69;1643682;87;21044;-87
2022/04/10 03:22:44;;;;;;;8.83;6.67;;;;;;;1.91;79.50;96104.56;1643929;87;21004;-88
2022/04/10 03:25:10;;;;;;;7.62;6.83;;;;;;;1.97;79.21;96114.77;1647652;87;20954;-88
2022/04/10 03:27:36;;;;;;;9.05;6.95;;;;;;;2.03;78.99;96106.05;1650688;87;21412;-87
2022/04/10 03:30:02;;;;;;;7.67;6.30;;;;;;;2.07;78.94;96110.42;1654606;87;21017;-87
2022/04/10 03:32:29;;;;;;;8.50;7.50;;;;;;;2.07;78.99;96107.86;1653629;87;21049;-87
2022/04/10 03:34:54;;;;;;;9.43;7.37;;;;;;;2.12;79.04;96112.13;1629606;88;21121;-87
2022/04/10 03:37:20;;;;;;;9.13;6.35;;;;;;;2.16;78.71;96115.22;1654205;87;21026;-87
2022/04/10 03:39:46;;;;;;;7.20;6.47;;;;;;;2.23;78.68;96118.84;1654436;87;21015;-87
2022/04/10 03:42:11;;;;;;;9.18;8.28;;;;;;;2.24;78.33;96120.46;1654445;87;21432;-86
2022/04/10 03:44:37;;;;;;;8.68;7.78;;;;;;;2.25;78.11;96126.73;1654785;87;20998;-87
2022/04/10 03:47:03;;;;;;;8.10;7.30;;;;;;;2.29;78.00;96125.53;1654449;87;21002;-87
2022/04/10 03:49:29;;;;;;;11.70;7.67;;;;;;;2.29;77.84;96130.66;1627810;88;20959;-87
2022/04/10 03:51:55;;;;;;;9.00;7.40;;;;;;;2.30;77.84;96144.30;1604917;89;21035;-87
2022/04/10 03:54:21;;;;;;;8.05;7.25;;;;;;;2.31;77.67;96142.87;1601132;90;20982;-87
2022/04/10 03:56:46;;;;;;;7.72;6.95;;;;;;;2.34;77.36;96141.78;1600773;90;21006;-87
2022/04/10 03:59:12;;;;;;;9.10;7.20;;;;;;;2.38;77.51;96150.34;1600798;90;21459;-87
2022/04/10 04:01:38;;;;;;;9.35;7.53;;;;;;;2.41;77.47;96153.09;1650014;87;20987;-87
2022/04/10 04:04:04;;;;;;;9.63;7.28;;;;;;;2.43;77.50;96156.80;1650125;87;21022;-87
2022/04/10 04:06:30;;;;;;;8.10;7.25;;;;;;;2.42;77.79;96156.00;1636282;87;21058;-87
2022/04/10 04:08:56;;;;;;;8.58;7.17;;;;;;;2.40;77.61;96159.17;1648450;87;20963;-86
2022/04/10 04:11:21;;;;;;;8.18;7.33;;;;;;;2.41;77.57;96163.36;1623767;88;21403;-87
2022/04/10 04:13:47;;;;;;;9.33;7.58;;;;;;;2.42;77.31;96167.54;1623538;88;20998;-87
2022/04/10 04:16:13;;;;;;;7.72;6.90;;;;;;;2.48;77.25;96171.33;1635706;87;21070;-87
2022/04/10 04:18:40;;;;;;;7.75;6.92;;;;;;;2.53;77.48;96170.44;1650333;87;21038;-87
2022/04/10 04:21:05;;;;;;;7.95;6.65;;;;;;;2.52;77.43;96170.10;1644390;86;20984;-86
2022/04/10 04:23:31;;;;;;;8.00;6.03;;;;;;;2.55;77.82;96178.80;1647299;87;21014;-87
2022/04/10 04:25:57;;;;;;;7.80;6.12;;;;;;;2.58;78.35;96183.66;1634671;87;20987;-87
2022/04/10 04:28:22;;;;;;;8.80;7.40;;;;;;;2.55;78.21;96183.93;1649999;87;20998;-87
2022/04/10 04:30:48;;;;;;;8.55;6.83;;;;;;;2.54;78.12;96190.01;1647688;87;21046;-87
2022/04/10 04:33:16;;;;;;;8.08;6.75;;;;;;;2.57;78.09;96189.26;1642587;87;21386;-87
2022/04/10 04:35:41;;;;;;;8.43;6.45;;;;;;;2.59;77.68;96191.20;1638030;86;21043;-87
2022/04/10 04:38:07;;;;;;;7.47;6.45;;;;;;;2.57;77.62;96193.10;1605633;87;21441;-87
2022/04/10 04:40:33;;;;;;;9.33;6.87;;;;;;;2.61;78.11;96200.08;1605690;87;21038;-87
2022/04/10 04:42:59;;;;;;;7.50;6.70;;;;;;;2.60;77.24;96199.71;1600895;90;21149;-88
2022/04/10 04:45:24;;;;;;;10.03;7.42;;;;;;;2.60;77.37;96202.28;1602016;90;21107;-86
2022/04/10 04:47:51;;;;;;;7.75;6.90;;;;;;;2.61;77.41;96203.45;1645405;87;21445;-87
2022/04/10 04:50:18;;;;;;;7.22;6.50;;;;;;;2.63;77.11;96202.84;1647789;87;21022;-87
2022/04/10 04:52:44;;;;;;;6.47;5.55;;;;;;;2.70;77.36;96212.87;1647741;87;21125;-87
2022/04/10 04:55:10;;;;;;;6.47;5.87;;;;;;;2.76;77.78;96206.84;1645427;87;21406;-87
2022/04/10 04:57:35;;;;;;;7.58;6.05;;;;;;;2.78;77.72;96209.64;1647677;87;21030;-87
2022/04/10 05:00:01;;;;;;;8.50;6.70;;;;;;;2.83;77.62;96210.02;1627737;87;21063;-87
2022/04/10 05:02:27;;;;;;;8.53;7.55;;;;;;;2.87;77.34;96210.55;1622639;87;21078;-87
2022/04/10 05:04:54;;;;;;;8.33;7.50;;;;;;;2.90;77.89;96218.78;1619961;88;21531;-87
2022/04/10 05:07:21;;;;;;;9.23;8.23;;;;;;;2.92;77.26;96220.73;1636892;87;21057;-87
2022/04/10 05:09:47;;;;;;;9.28;7.42;;;;;;;2.88;76.98;96224.53;1647668;87;21069;-87
2022/04/10 05:12:13;;;;;;;8.28;7.28;;;;;;;2.90;77.37;96225.67;1647704;87;21052;-86
2022/04/10 05:14:39;;;;;;;9.33;8.20;;;;;;;2.93;77.29;96226.22;1647493;87;21009;-87
2022/04/10 05:17:04;;;;;;;10.23;8.73;;;;;;;2.98;76.92;96234.78;1646140;87;21349;-87
2022/04/10 05:19:30;;;;;;;8.35;7.25;;;;;;;3.01;76.50;96235.31;1647821;87;20987;-87
2022/04/10 05:21:56;;;;;;;10.40;8.20;;;;;;;3.05;76.48;96235.03;1648028;87;20979;-86
2022/04/10 05:24:22;;;;;;;10.40;8.18;;;;;;;3.06;76.42;96238.73;1647838;87;21386;-86
2022/04/10 05:26:48;;;;;;;10.63;8.90;;;;;;;3.10;76.67;96241.39;1624588;87;21062;-86
2022/04/10 05:29:14;;;;;;;10.08;8.60;;;;;;;3.09;76.20;96236.36;1647691;87;21054;-87
2022/04/10 05:31:41;;;;;;;12.58;8.28;;;;;;;3.10;76.06;96243.14;1645473;87;21136;-87
2022/04/10 05:34:07;;;;;;;12.20;8.63;;;;;;;3.09;76.16;96242.34;1651543;87;21464;-88
2022/04/10 05:36:32;;;;;;;7.80;6.92;;;;;;;3.10;75.86;96247.00;1625052;88;21097;-88
2022/04/10 05:38:58;;;;;;;8.45;7.30;;;;;;;3.11;75.68;96243.48;1652588;86;21329;-87
2022/04/10 05:41:25;;;;;;;33.13;20.37;;;;;;;3.12;75.60;96254.89;1657775;86;20997;-86
2022/04/10 05:43:51;;;;;;;17.23;11.20;;;;;;;3.16;75.92;96256.70;1658533;86;21026;-87
2022/04/10 05:46:17;;;;;;;36.65;23.40;;;;;;;3.17;75.60;96253.19;1650302;86;20976;-87
2022/04/10 05:48:42;;;;;;;29.55;21.50;;;;;;;3.16;75.46;96260.55;1648678;87;21426;-87
2022/04/10 05:51:08;;;;;;;17.87;14.53;;;;;;;3.15;75.64;96267.92;1657672;86;20990;-87
2022/04/10 05:53:35;;;;;;;53.73;36.05;;;;;;;3.16;75.79;96265.69;1655585;86;21063;-87
2022/04/10 05:56:01;;;;;;;15.23;11.43;;;;;;;3.17;75.78;96273.72;1653301;86;21067;-87
2022/04/10 05:58:26;;;;;;;18.15;13.53;;;;;;;3.15;75.62;96270.48;1658005;86;21021;-86
2022/04/10 06:00:53;;;;;;;25.88;18.07;;;;;;;3.13;75.53;96269.81;1657828;85;21037;-87
2022/04/10 06:03:19;;;;;;;23.45;17.85;;;;;;;3.14;75.23;96277.38;1659238;86;21042;-87
2022/04/10 06:05:45;;;;;;;37.28;29.42;;;;;;;3.13;75.43;96273.67;1658196;86;21026;-87
2022/04/10 06:08:11;;;;;;;23.95;20.97;;;;;;;3.14;75.62;96275.29;1659116;86;21014;-87
2022/04/10 06:10:37;;;;;;;12.20;10.08;;;;;;;3.15;75.80;96280.28;1658533;86;21464;-87
2022/04/10 06:13:09;;;;;;;16.80;15.13;;;;;;;3.15;75.60;96277.72;1649007;86;21021;-86
2022/04/10 06:15:34;;;;;;;21.87;19.35;;;;;;;3.14;75.61;96282.98;1652757;86;21010;-87
2022/04/10 06:18:00;;;;;;;24.18;21.87;;;;;;;3.13;75.64;96282.19;1650022;86;20997;-86
2022/04/10 06:20:26;;;;;;;12.73;11.38;;;;;;;3.13;75.90;96285.22;1642208;86;20977;-86
2022/04/10 06:22:52;;;;;;;11.20;10.20;;;;;;;3.16;75.83;96276.77;1645660;86;20998;-86
2022/04/10 06:25:18;;;;;;;11.83;10.55;;;;;;;3.20;75.52;96283.71;1644648;86;21070;-87
2022/04/10 06:27:43;;;;;;;10.48;8.98;;;;;;;3.24;75.61;96279.44;1643539;86;21029;-86
2022/04/10 06:30:11;;;;;;;9.55;7.70;;;;;;;3.29;75.77;96282.89;1649486;86;21049;-86
2022/04/10 06:32:36;;;;;;;8.50;7.40;;;;;;;3.31;75.73;96282.28;1643841;86;20987;-86
2022/04/10 06:35:02;;;;;;;8.33;7.05;;;;;;;3.33;75.48;96285.51;1617418;88;21098;-86
2022/04/10 06:37:28;;;;;;;8.03;7.20;;;;;;;3.35;75.51;96285.37;1635254;87;21043;-87
2022/04/10 06:39:54;;;;;;;8.30;7.35;;;;;;;3.38;75.60;96283.80;1637027;87;20990;-84
2022/04/10 06:42:20;;;;;;;12.20;8.95;;;;;;;3.39;75.24;96288.80;1635958;87;21348;-84
2022/04/10 06:44:46;;;;;;;9.75;8.30;;;;;;;3.40;75.25;96289.13;1639737;85;21011;-84
2022/04/10 06:47:11;;;;;;;9.35;7.37;;;;;;;3.43;75.17;96286.31;1643416;87;21050;-85
2022/04/10 06:49:39;;;;;;;8.83;7.90;;;;;;;3.48;75.00;96288.45;1640479;87;20997;-86
2022/04/10 06:52:05;;;;;;;8.08;7.28;;;;;;;3.54;75.13;96295.58;1640358;87;21092;-86
2022/04/10 06:54:31;;;;;;;9.35;7.10;;;;;;;3.59;75.06;96299.84;1640463;87;22129;-86
2022/04/10 06:56:57;;;;;;;6.95;6.22;;;;;;;3.37;74.54;96265.02;1644619;87;20959;-86
2022/04/10 06:59:23;;;;;;;8.38;6.62;;;;;;;3.53;73.83;96301.67;1646487;87;21014;-86
2022/04/10 07:01:48;;;;;;;9.88;8.50;;;;;;;3.52;74.41;96302.15;1653289;87;21034;-85
2022/04/10 07:04:14;;;;;;;8.08;7.28;;;;;;;3.53;74.61;96308.91;1643890;87;21357;-85
2022/04/10 07:06:46;;;;;;;11.12;7.87;;;;;;;3.52;73.85;96312.91;1620249;87;21054;-86
2022/04/10 07:09:09;;;;;;;11.57;9.30;;;;;;;3.46;73.90;96311.70;1646013;86;20992;-85
2022/04/10 07:11:34;;;;;;;11.20;8.93;;;;;;;3.45;74.21;96311.85;1624341;88;20938;-85
2022/04/10 07:14:00;;;;;;;10.08;9.08;;;;;;;3.47;74.58;96312.52;1644211;87;21073;-85
2022/04/10 07:16:26;;;;;;;8.55;7.00;;;;;;;3.26;74.29;96281.42;1636077;87;21071;-86
2022/04/10 07:18:51;;;;;;;10.35;7.62;;;;;;;3.52;74.01;96320.13;1627966;87;21034;-85
2022/04/10 07:23:41;;;;;;;9.23;6.80;;;;;;;3.50;74.15;96328.45;1654433;87;21006;-86
2022/04/10 07:23:46;;;;;;;9.30;6.97;;;;;;;3.44;73.44;96329.50;1650042;87;21007;-86
2022/04/10 07:26:13;;;;;;;10.28;9.15;;;;;;;3.38;73.71;96337.27;1644097;87;21018;-85
2022/04/10 07:28:39;;;;;;;8.83;6.95;;;;;;;3.34;74.02;96329.50;1627465;87;20994;-86
2022/04/10 07:31:08;;;;;;;9.78;8.23;;;;;;;3.25;73.41;96340.14;1636040;87;20990;-87
2022/04/10 07:33:34;;;;;;;10.65;7.65;;;;;;;3.17;73.32;96342.57;1651406;85;21083;-85
2022/04/10 07:35:59;;;;;;;9.15;7.37;;;;;;;3.17;74.02;96337.91;1642671;87;21450;-84
2022/04/10 07:38:25;;;;;;;8.55;7.00;;;;;;;3.21;74.03;96343.10;1640109;87;20967;-87
2022/04/10 07:40:51;;;;;;;16.70;12.33;;;;;;;3.24;74.13;96338.49;1622708;87;20994;-84
2022/04/10 07:43:17;;;;;;;10.43;8.45;;;;;;;3.27;73.77;96336.96;1646128;85;21085;-85
2022/04/10 07:48:27;;;;;;;8.68;7.47;;;;;;;3.40;74.02;96343.06;1642683;87;20978;-82
2022/04/10 07:50:55;;;;;;;12.78;9.03;;;;;;;3.45;73.79;96342.20;1638555;85;21041;-85
2022/04/10 07:53:21;;;;;;;11.78;7.85;;;;;;;3.51;74.00;96340.34;1641397;87;20998;-85
2022/04/10 07:55:46;;;;;;;10.32;7.33;;;;;;;3.56;73.72;96345.88;1638452;87;21011;-84
2022/04/10 07:58:12;;;;;;;8.80;6.03;;;;;;;3.67;73.87;96349.23;1641106;86;21004;-85
2022/04/10 08:00:38;;;;;;;8.00;5.83;;;;;;;3.76;73.50;96345.84;1636765;87;21038;-84
2022/04/10 08:03:05;;;;;;;8.08;6.50;;;;;;;3.86;74.07;96346.60;1640167;85;21069;-83
2022/04/10 08:05:31;;;;;;;9.55;5.70;;;;;;;3.93;73.55;96352.81;1632529;87;21081;-83
2022/04/10 08:07:57;;;;;;;10.98;6.70;;;;;;;3.99;73.44;96357.38;1631406;87;20962;-84
2022/04/10 08:10:24;;;;;;;5.95;5.45;;;;;;;4.06;73.60;96357.14;1629128;87;20999;-83
2022/04/10 08:12:50;;;;;;;6.58;5.65;;;;;;;4.10;73.10;96361.06;1631997;87;21411;-83
2022/04/10 08:15:16;;;;;;;6.30;4.47;;;;;;;4.11;71.94;96361.88;1632546;87;21021;-84
2022/04/10 08:17:41;;;;;;;10.58;7.35;;;;;;;4.07;71.46;96363.92;1631329;87;20985;-83
2022/04/10 08:20:08;;;;;;;13.60;9.50;;;;;;;4.07;71.71;96362.64;1630627;87;20998;-83
2022/04/10 08:22:36;;;;;;;30.20;19.05;;;;;;;4.08;71.62;96358.31;1627413;87;21409;-84
2022/04/10 08:25:10;;;;;;;10.75;6.92;;;;;;;4.08;72.26;96370.69;1629878;87;21001;-84
2022/04/10 08:27:36;;;;;;;7.95;6.42;;;;;;;4.06;71.26;96362.76;1631194;87;21313;-85
2022/04/10 08:30:08;;;;;;;9.60;7.08;;;;;;;4.06;71.65;96375.13;1649514;87;21107;-83
2022/04/10 08:32:36;;;;;;;8.55;7.03;;;;;;;4.09;71.81;96372.31;1653228;86;21081;-83
2022/04/10 08:35:03;;;;;;;9.85;7.33;;;;;;;4.10;70.93;96379.55;1654362;87;21085;-83
2022/04/10 08:37:29;;;;;;;9.65;7.45;;;;;;;4.08;70.61;96387.41;1654219;87;21117;-83
2022/04/10 08:39:54;;;;;;;11.38;7.90;;;;;;;4.04;70.81;96380.90;1654479;87;20986;-83
2022/04/10 08:42:20;;;;;;;13.85;9.53;;;;;;;4.08;71.88;96386.12;1630296;87;21090;-84
2022/04/10 08:44:46;;;;;;;9.90;8.50;;;;;;;4.13;72.00;96381.35;1630022;87;21369;-84
2022/04/10 08:47:14;;;;;;;10.30;8.23;;;;;;;4.17;71.05;96369.82;1640192;87;21389;-84
2022/04/10 08:49:40;;;;;;;11.03;9.20;;;;;;;4.29;71.21;96383.79;1641938;87;21050;-83
2022/04/10 08:52:06;;;;;;;12.47;8.78;;;;;;;4.38;71.57;96385.48;1636369;87;21450;-83
2022/04/10 08:54:31;;;;;;;10.72;8.48;;;;;;;4.50;71.83;96390.30;1646788;86;21110;-85
2022/04/10 08:56:57;;;;;;;14.93;10.58;;;;;;;4.57;71.03;96385.41;1599866;88;21426;-83
2022/04/10 08:59:23;;;;;;;12.23;8.58;;;;;;;4.60;70.66;96385.59;1612442;88;21131;-85
2022/04/10 09:01:53;;;;;;;15.03;8.93;;;;;;;4.59;69.74;96385.27;1617018;88;21064;-83
2022/04/10 09:04:20;;;;;;;11.10;8.50;;;;;;;4.59;70.54;96386.55;1627845;87;20981;-83
2022/04/10 09:07:02;;;;;;;11.55;9.08;;;;;;;4.64;70.63;96384.34;1630983;87;21097;-79
2022/04/10 09:09:29;;;;;;;10.93;7.60;;;;;;;4.66;70.48;96381.95;1626709;87;21500;-80
2022/04/10 09:11:55;;;;;;;10.45;8.53;;;;;;;4.73;70.13;96380.91;1644024;87;20953;-80
2022/04/10 09:14:25;;;;;;;11.10;8.08;;;;;;;4.79;70.77;96377.27;1644025;87;21060;-79
2022/04/10 09:17:19;;;;;;;11.22;7.87;;;;;;;4.89;70.99;96377.70;1644612;87;21011;-80
2022/04/10 09:19:51;;;;;;;10.70;7.15;;;;;;;4.97;71.15;96377.76;1636868;85;21556;-80
2022/04/10 09:22:35;;;;;;;9.58;5.92;;;;;;;5.01;70.48;96382.94;1642868;85;21425;-79
2022/04/10 09:25:14;;;;;;;11.68;5.72;;;;;;;4.99;68.63;96377.94;1637615;87;21295;-80
2022/04/10 09:27:44;;;;;;;8.43;5.92;;;;;;;4.94;67.52;96382.73;1649702;85;21795;-80
2022/04/10 09:30:19;;;;;;;8.80;6.40;;;;;;;4.87;67.55;96380.39;1648083;85;21121;-80
2022/04/10 09:32:51;;;;;;;9.10;7.15;;;;;;;4.84;68.02;96384.55;1644339;87;21467;-80
2022/04/10 09:35:22;;;;;;;9.83;7.33;;;;;;;4.89;68.82;96381.55;1632139;85;21023;-80
2022/04/10 09:37:53;;;;;;;11.63;7.05;;;;;;;4.90;69.17;96378.83;1640655;87;21066;-80
2022/04/10 09:40:29;;;;;;;9.75;8.63;;;;;;;4.87;68.61;96382.16;1626096;87;21506;-80
2022/04/10 09:43:10;;;;;;;10.13;7.10;;;;;;;4.81;68.30;96383.55;1618782;88;21032;-80
2022/04/10 09:45:43;;;;;;;11.35;7.20;;;;;;;4.71;68.74;96386.66;1620868;86;20944;-80
2022/04/10 09:48:30;;;;;;;11.40;7.78;;;;;;;4.67;68.40;96384.05;1619155;87;21342;-80
2022/04/10 09:51:03;;;;;;;8.65;7.40;;;;;;;4.60;68.54;96385.12;1620614;87;20971;-80
2022/04/10 09:53:30;;;;;;;10.18;7.28;;;;;;;4.52;68.66;96385.82;1638933;87;20963;-81
2022/04/10 09:56:00;;;;;;;9.28;6.33;;;;;;;4.44;68.12;96390.08;1627019;87;20987;-80
2022/04/10 09:58:26;;;;;;;7.70;5.42;;;;;;;4.42;68.37;96394.09;1618652;89;21090;-80
2022/04/10 10:00:54;;;;;;;7.50;6.22;;;;;;;4.39;68.20;96389.23;1620402;87;20997;-80
2022/04/10 10:03:28;;;;;;;8.48;6.70;;;;;;;4.40;68.09;96392.61;1618616;87;21063;-80
2022/04/10 10:05:55;;;;;;;13.28;8.73;;;;;;;4.40;68.22;96393.91;1630620;87;20963;-80
2022/04/10 10:08:22;;;;;;;11.20;7.20;;;;;;;4.41;68.58;96396.33;1624358;87;21018;-80
2022/04/10 10:10:48;;;;;;;12.85;10.48;;;;;;;4.45;68.92;96396.84;1645287;87;21405;-79
2022/04/10 10:13:14;;;;;;;12.37;8.00;;;;;;;4.51;69.22;96397.55;1636978;87;21019;-79
2022/04/10 10:15:41;;;;;;;11.95;7.97;;;;;;;4.55;69.02;96390.34;1618325;87;21055;-78
2022/04/10 10:18:12;;;;;;;10.72;7.78;;;;;;;4.60;69.43;96389.45;1618644;87;21029;-79
2022/04/10 10:20:40;;;;;;;9.88;6.97;;;;;;;4.63;69.88;96389.97;1618726;88;21103;-79
2022/04/10 10:23:11;;;;;;;10.80;8.13;;;;;;;4.70;69.49;96388.91;1628790;87;21079;-80
2022/04/10 10:25:46;;;;;;;28.67;16.05;;;;;;;4.75;69.43;96390.11;1644928;87;21000;-79
2022/04/10 10:28:47;;;;;;;11.63;7.10;;;;;;;4.81;69.36;96387.42;1645063;86;21589;-79
2022/04/10 10:31:34;;;;;;;8.45;5.55;;;;;;;4.87;69.13;96387.30;1643560;87;20997;-79
2022/04/10 10:34:05;;;;;;;8.95;6.80;;;;;;;4.90;68.43;96385.27;1628246;86;21422;-79
2022/04/10 10:36:31;;;;;;;11.80;7.08;;;;;;;5.07;69.24;96387.52;1626209;87;21531;-79
2022/04/10 10:38:58;;;;;;;10.88;8.55;;;;;;;5.26;69.15;96398.14;1639236;87;21430;-79
2022/04/10 10:41:34;;;;;;;11.90;7.70;;;;;;;5.46;69.15;96388.47;1646992;87;21121;-79
2022/04/10 10:43:58;;;;;;;11.22;8.65;;;;;;;5.72;70.74;96388.84;1653628;87;21107;-80
2022/04/10 10:46:34;;;;;;;22.67;13.80;;;;;;;6.14;71.12;96390.70;1629708;88;21094;-79
2022/04/10 10:49:18;;;;;;;11.88;6.65;;;;;;;6.48;69.41;96386.81;1635428;87;20982;-80
2022/04/10 10:51:51;;;;;;;21.70;10.88;;;;;;;6.70;68.48;96382.88;1624751;88;20997;-80
2022/04/10 10:54:26;;;;;;;15.43;9.70;;;;;;;7.00;69.33;96380.20;1633070;85;21023;-80
2022/04/10 10:56:52;;;;;;;8.00;6.10;;;;;;;7.14;68.14;96376.96;1646266;87;21433;-79
2022/04/10 10:59:39;;;;;;;8.53;6.15;;;;;;;7.08;67.79;96378.09;1638727;87;21098;-79
2022/04/10 11:02:19;;;;;;;8.88;6.72;;;;;;;7.05;66.88;96378.42;1623283;87;21425;-79
2022/04/10 11:04:47;;;;;;;10.20;7.08;;;;;;;7.11;66.09;96375.19;1628197;87;21038;-79
2022/04/10 11:07:22;;;;;;;6.83;5.42;;;;;;;7.28;65.90;96370.35;1640220;87;21117;-79
2022/04/10 11:09:54;;;;;;;6.62;5.37;;;;;;;7.48;64.99;96377.29;1649046;87;21089;-79
2022/04/10 11:12:22;;;;;;;7.37;5.00;;;;;;;7.60;65.15;96372.12;1649237;87;21445;-79
2022/04/10 11:14:51;;;;;;;5.42;4.85;;;;;;;7.67;64.09;96369.22;1649202;86;21412;-79
2022/04/10 11:17:23;;;;;;;6.60;4.80;;;;;;;7.58;63.03;96373.26;1650030;87;20997;-79
2022/04/10 11:19:57;;;;;;;5.60;4.22;;;;;;;7.49;64.32;96382.81;1649273;87;21127;-79
2022/04/10 11:22:38;;;;;;;7.85;4.20;;;;;;;7.29;61.35;96374.55;1627323;87;21062;-79
2022/04/10 11:25:09;;;;;;;5.62;3.85;;;;;;;7.26;61.84;96372.78;1650565;86;20987;-79
2022/04/10 11:27:57;;;;;;;3.85;3.08;;;;;;;7.19;62.50;96372.14;1650240;87;21468;-79
2022/04/10 11:30:41;;;;;;;4.20;2.67;;;;;;;7.11;59.42;96372.60;1650132;86;21094;-79
2022/04/10 11:33:10;;;;;;;6.90;3.55;;;;;;;7.19;60.67;96372.63;1634767;87;21014;-79
2022/04/10 11:35:43;;;;;;;5.55;3.40;;;;;;;7.36;58.58;96368.27;1648974;86;21058;-79
2022/04/10 11:38:17;;;;;;;6.40;4.90;;;;;;;7.41;59.44;96370.68;1649393;87;21079;-79
2022/04/10 11:40:47;;;;;;;5.17;2.87;;;;;;;7.35;61.05;96376.99;1626329;87;21409;-79
2022/04/10 11:43:16;;;;;;;5.33;3.20;;;;;;;7.18;60.21;96376.98;1649705;87;21082;-79